Terminal Aerodrome Forecast
Issued by NWS

Home | Current Version | Previous Version | Text Only | Print | Product List | Glossary Off
Versions: 1 2 3 4 5 6 7 8 9 10 11 12 13 14 15 16 17 18 19

618
FTUS43 KIWX 241253 AAA
TAFSBN
TAF AMD
KSBN 241253Z 2413/2512 13010KT 5SM -SHRA VCTS OVC022CB
     FM241400 16012KT P6SM SCT015 BKN040
      TEMPO 2414/2418 BKN015
     FM242100 21012G20KT 4SM -SHRA OVC020
      TEMPO 2421/2423 28018G35KT 2SM +TSRA OVC008CB
     FM250000 25012KT 6SM -SHRA OVC025
     FM250600 26014G20KT 5SM -SHSN OVC015=

USA.gov is the U.S. government's official web portal to all federal, state and local government web resources and services.